createdAt,value
2022-08-07T00:02:35.209Z,3.22
2022-08-07T00:04:05.876Z,5.38
2022-08-07T00:06:33.980Z,2.38
2022-08-07T00:09:16.949Z,3.55
2022-08-07T00:11:56.166Z,3.03
2022-08-07T00:14:30.534Z,2.47
2022-08-07T00:16:59.627Z,4.55
2022-08-07T00:20:00.012Z,3.50
2022-08-07T00:22:24.663Z,3.70
2022-08-07T00:25:01.975Z,5.63
2022-08-07T00:27:29.967Z,5.35
2022-08-07T00:30:26.433Z,4.55
2022-08-07T00:32:54.549Z,4.35
2022-08-07T00:35:23.018Z,3.25
2022-08-07T00:37:50.816Z,2.85
2022-08-07T00:40:39.960Z,2.80
2022-08-07T00:43:09.453Z,2.90
2022-08-07T00:45:38.082Z,2.45
2022-08-07T00:48:08.737Z,2.95
2022-08-07T00:50:51.133Z,4.03
2022-08-07T00:53:20.089Z,2.50
2022-08-07T00:56:03.403Z,3.97
2022-08-07T00:58:32.557Z,4.80
2022-08-07T01:01:00.145Z,5.00
2022-08-07T01:03:56.181Z,5.70
2022-08-07T01:06:15.792Z,2.75
2022-08-07T01:08:52.939Z,4.05
2022-08-07T01:12:04.404Z,2.95
2022-08-07T01:14:09.264Z,3.47
2022-08-07T01:16:39.887Z,3.92
2022-08-07T01:19:10.807Z,3.97
2022-08-07T01:21:47.420Z,5.28
2022-08-07T01:24:21.243Z,5.30
2022-08-07T01:26:52.076Z,2.67
2022-08-07T01:29:20.350Z,3.72
2022-08-07T01:31:49.999Z,3.35
2022-08-07T01:34:18.814Z,8.57
2022-08-07T01:36:57.632Z,4.18
2022-08-07T01:39:41.201Z,3.75
2022-08-07T01:42:38.310Z,4.10
2022-08-07T01:45:04.189Z,4.95
2022-08-07T01:48:18.139Z,5.85
2022-08-07T01:50:22.783Z,3.70
2022-08-07T01:52:58.393Z,5.13
2022-08-07T01:55:30.515Z,3.53
2022-08-07T01:58:27.091Z,4.95
2022-08-07T02:00:52.074Z,3.53
2022-08-07T02:03:31.990Z,3.28
2022-08-07T02:06:31.851Z,5.63
2022-08-07T02:09:01.131Z,3.42
2022-08-07T02:12:03.528Z,4.20
2022-08-07T02:14:35.644Z,4.10
2022-08-07T02:17:04.294Z,5.50
2022-08-07T02:20:04.046Z,5.68
2022-08-07T02:22:21.506Z,3.90
2022-08-07T02:24:55.410Z,6.15
2022-08-07T02:27:23.904Z,5.00
2022-08-07T02:29:54.633Z,4.20
2022-08-07T02:32:27.039Z,3.45
2022-08-07T02:34:58.666Z,4.70
2022-08-07T02:37:28.576Z,4.82
2022-08-07T02:40:29.664Z,4.60
2022-08-07T02:42:51.789Z,3.88
2022-08-07T02:45:57.613Z,4.78
2022-08-07T02:48:10.122Z,4.88
2022-08-07T02:50:41.371Z,3.78
2022-08-07T02:53:11.727Z,4.35
2022-08-07T02:58:29.934Z,8.38
2022-08-07T03:01:03.042Z,5.38
2022-08-07T03:03:49.130Z,3.88
2022-08-07T03:06:32.703Z,4.70
2022-08-07T03:09:03.085Z,5.55
2022-08-07T03:11:32.848Z,5.65
2022-08-07T03:14:06.198Z,5.15
2022-08-07T03:16:33.777Z,6.55
2022-08-07T03:19:01.798Z,6.80
2022-08-07T03:21:33.083Z,6.03
2022-08-07T03:24:19.307Z,5.78
2022-08-07T03:26:58.786Z,5.10
2022-08-07T03:29:39.145Z,4.65
2022-08-07T03:32:15.359Z,5.93
2022-08-07T03:34:47.606Z,5.03
2022-08-07T03:37:32.796Z,5.40
2022-08-07T03:40:15.354Z,6.75
2022-08-07T03:42:43.935Z,5.25
2022-08-07T03:45:11.657Z,4.50
2022-08-07T03:47:45.312Z,5.22
2022-08-07T03:50:23.460Z,6.40
2022-08-07T03:52:51.916Z,5.53
2022-08-07T03:55:19.336Z,4.85
2022-08-07T03:58:35.342Z,5.20
2022-08-07T04:00:36.529Z,5.63
2022-08-07T04:03:06.952Z,6.22
2022-08-07T04:05:40.925Z,8.90
2022-08-07T04:08:16.330Z,6.15
2022-08-07T04:10:54.741Z,7.28
2022-08-07T04:14:09.296Z,8.55
2022-08-07T04:16:31.039Z,5.50
2022-08-07T04:19:04.212Z,6.15
2022-08-07T04:21:40.210Z,11.18
2022-08-07T04:24:30.621Z,6.28
2022-08-07T04:27:03.216Z,7.72
2022-08-07T04:29:57.187Z,8.63
2022-08-07T04:32:34.123Z,6.65
2022-08-07T04:35:05.727Z,7.63
2022-08-07T04:37:40.403Z,8.35
2022-08-07T04:40:21.214Z,8.27
2022-08-07T04:42:51.797Z,9.50
2022-08-07T04:48:17.150Z,8.63
2022-08-07T04:51:10.922Z,9.55
2022-08-07T04:54:05.448Z,12.38
2022-08-07T04:58:13.692Z,9.32
2022-08-07T05:00:12.491Z,10.90
2022-08-07T05:02:33.788Z,8.55
2022-08-07T05:05:12.038Z,8.98
2022-08-07T05:07:58.836Z,8.63
2022-08-07T05:10:32.152Z,8.02
2022-08-07T05:13:10.092Z,11.25
2022-08-07T05:15:57.970Z,9.27
2022-08-07T05:18:29.955Z,7.57
2022-08-07T05:21:01.015Z,11.05
2022-08-07T05:23:35.583Z,11.25
2022-08-07T05:26:13.400Z,11.77
2022-08-07T05:28:48.514Z,9.20
2022-08-07T05:31:18.368Z,15.07
2022-08-07T05:34:01.051Z,12.55
2022-08-07T05:36:35.476Z,12.52
2022-08-07T05:40:06.598Z,14.45
2022-08-07T05:42:00.311Z,14.02
2022-08-07T05:44:30.801Z,12.32
2022-08-07T05:47:00.392Z,9.98
2022-08-07T05:49:40.393Z,10.82
2022-08-07T05:52:11.409Z,11.63
2022-08-07T05:54:53.513Z,9.23
2022-08-07T05:57:29.893Z,11.82
2022-08-07T05:59:59.478Z,12.00
2022-08-07T06:02:30.661Z,11.50
2022-08-07T06:05:00.473Z,9.25
2022-08-07T06:08:05.349Z,7.68
2022-08-07T06:10:15.755Z,8.43
2022-08-07T06:12:43.102Z,7.13
2022-08-07T06:15:15.278Z,7.10
2022-08-07T06:17:50.615Z,7.18
2022-08-07T06:20:32.059Z,10.57
2022-08-07T06:23:46.048Z,8.10
2022-08-07T06:25:59.106Z,10.68
2022-08-07T06:28:29.440Z,6.00
2022-08-07T06:30:58.198Z,7.97
2022-08-07T06:33:26.167Z,6.35
2022-08-07T06:36:06.714Z,8.52
2022-08-07T06:38:58.875Z,8.57
2022-08-07T06:42:02.896Z,8.40
2022-08-07T06:44:33.871Z,7.85
2022-08-07T06:47:12.449Z,6.43
2022-08-07T06:52:31.410Z,7.97
2022-08-07T06:55:32.081Z,6.47
2022-08-07T06:57:56.926Z,5.47
2022-08-07T07:00:25.358Z,4.78
2022-08-07T07:03:00.883Z,4.97
2022-08-07T07:08:29.880Z,3.97
2022-08-07T07:11:00.910Z,4.32
2022-08-07T07:13:55.424Z,4.35
2022-08-07T07:16:27.574Z,3.80
2022-08-07T07:19:54.478Z,8.65
2022-08-07T07:22:12.127Z,5.47
2022-08-07T07:24:56.654Z,5.73
2022-08-07T07:27:35.497Z,3.42
2022-08-07T07:30:32.458Z,6.93
2022-08-07T07:33:05.777Z,6.00
2022-08-07T07:35:43.748Z,4.07
2022-08-07T07:38:25.932Z,5.65
2022-08-07T07:41:01.815Z,5.32
2022-08-07T07:43:47.882Z,4.10
2022-08-07T07:46:37.827Z,4.47
2022-08-07T07:50:31.435Z,4.15
2022-08-07T07:51:57.640Z,7.65
2022-08-07T07:54:27.290Z,4.95
2022-08-07T07:56:57.474Z,3.80
2022-08-07T07:59:52.150Z,4.70
2022-08-07T08:02:34.074Z,3.72
2022-08-07T08:05:14.435Z,4.25
2022-08-07T08:07:59.631Z,3.45
2022-08-07T08:10:35.583Z,5.88
2022-08-07T08:13:10.531Z,3.67
2022-08-07T08:15:57.430Z,6.25
2022-08-07T08:18:28.163Z,4.45
2022-08-07T08:20:56.464Z,4.00
2022-08-07T08:23:43.623Z,4.13
2022-08-07T08:26:33.667Z,5.15
2022-08-07T08:29:01.846Z,4.10
2022-08-07T08:31:58.809Z,5.47
2022-08-07T08:34:28.958Z,7.30
2022-08-07T08:36:58.418Z,4.20
2022-08-07T08:39:38.920Z,7.25
2022-08-07T08:42:11.000Z,4.65
2022-08-07T08:44:58.967Z,3.85
2022-08-07T08:47:52.387Z,3.38
2022-08-07T08:50:34.996Z,5.18
2022-08-07T08:53:13.517Z,6.50
2022-08-07T08:55:54.464Z,5.15
2022-08-07T08:58:30.526Z,4.78
2022-08-07T09:01:15.023Z,6.82
2022-08-07T09:04:25.927Z,3.50
2022-08-07T09:07:02.397Z,5.20
2022-08-07T09:09:44.606Z,4.07
2022-08-07T09:12:30.955Z,5.78
2022-08-07T09:14:59.828Z,5.90
2022-08-07T09:17:27.469Z,4.00
2022-08-07T09:20:37.786Z,4.95
2022-08-07T09:24:32.368Z,5.38
2022-08-07T09:26:23.860Z,3.10
2022-08-07T09:30:03.758Z,5.43
2022-08-07T09:31:57.385Z,4.65
2022-08-07T09:34:32.372Z,4.05
2022-08-07T09:37:12.543Z,5.47
2022-08-07T09:39:53.800Z,5.80
2022-08-07T09:42:33.715Z,3.05
2022-08-07T09:46:29.101Z,3.08
2022-08-07T09:48:14.618Z,6.72
2022-08-07T09:50:51.392Z,4.13
2022-08-07T09:53:22.560Z,4.53
2022-08-07T09:56:12.740Z,4.28
2022-08-07T10:01:52.122Z,4.50
2022-08-07T10:04:33.514Z,5.43
2022-08-07T10:07:24.392Z,3.53
2022-08-07T10:10:00.985Z,6.43
2022-08-07T10:12:39.595Z,6.38
2022-08-07T10:15:45.396Z,5.28
2022-08-07T10:18:27.326Z,3.10
2022-08-07T10:24:05.581Z,2.47
2022-08-07T10:26:33.258Z,3.78
2022-08-07T10:29:22.024Z,2.13
2022-08-07T10:32:01.502Z,8.00
2022-08-07T10:34:45.163Z,3.38
2022-08-07T10:37:26.510Z,2.97
2022-08-07T10:40:13.269Z,2.42
2022-08-07T10:42:41.251Z,4.55
2022-08-07T10:45:45.331Z,4.00
2022-08-07T10:48:08.249Z,3.22
2022-08-07T10:50:57.737Z,3.13
2022-08-07T10:53:44.999Z,2.50
2022-08-07T10:56:20.998Z,4.18
2022-08-07T10:59:07.830Z,4.05
2022-08-07T11:02:04.858Z,2.85
2022-08-07T11:04:54.600Z,2.90
2022-08-07T11:07:58.698Z,5.28
2022-08-07T11:10:38.703Z,3.65
2022-08-07T11:14:41.772Z,3.75
2022-08-07T11:16:07.243Z,3.22
2022-08-07T11:18:50.918Z,5.28
2022-08-07T11:21:33.979Z,4.22
2022-08-07T11:24:19.022Z,4.60
2022-08-07T11:27:13.482Z,7.20
2022-08-07T11:30:10.165Z,3.85
2022-08-07T11:32:52.843Z,3.70
2022-08-07T11:35:29.878Z,2.80
2022-08-07T11:37:58.057Z,5.53
2022-08-07T11:40:56.676Z,4.25
2022-08-07T11:43:29.697Z,3.08
2022-08-07T11:46:11.754Z,4.82
2022-08-07T11:49:27.660Z,3.55
2022-08-07T11:51:49.090Z,3.97
2022-08-07T11:54:25.385Z,2.15
2022-08-07T11:57:06.721Z,3.65
2022-08-07T12:00:12.325Z,3.15
2022-08-07T12:02:52.609Z,3.60
2022-08-07T12:05:58.368Z,3.08
2022-08-07T12:08:42.636Z,4.35
2022-08-07T12:11:21.767Z,3.50
2022-08-07T12:14:08.524Z,2.15
2022-08-07T12:16:41.880Z,6.00
2022-08-07T12:19:21.612Z,3.20
2022-08-07T12:22:38.622Z,2.15
2022-08-07T12:26:03.448Z,3.50
2022-08-07T12:28:11.133Z,3.33
2022-08-07T12:30:46.701Z,2.95
2022-08-07T12:33:23.454Z,3.38
2022-08-07T12:35:58.171Z,4.13
2022-08-07T12:40:58.188Z,2.85
2022-08-07T12:44:02.943Z,2.13
2022-08-07T12:46:26.256Z,3.95
2022-08-07T12:48:59.950Z,3.55
2022-08-07T12:52:12.265Z,2.13
2022-08-07T12:55:01.513Z,3.33
2022-08-07T12:57:50.899Z,3.50
2022-08-07T13:00:32.538Z,3.60
2022-08-07T13:03:26.874Z,2.65
2022-08-07T13:06:17.092Z,3.78
2022-08-07T13:08:59.891Z,2.80
2022-08-07T13:12:02.077Z,4.55
2022-08-07T13:14:37.395Z,2.40
2022-08-07T13:17:40.748Z,3.78
2022-08-07T13:20:12.791Z,5.57
2022-08-07T13:22:42.832Z,3.80
2022-08-07T13:25:50.794Z,12.13
2022-08-07T13:28:25.097Z,9.93
2022-08-07T13:31:18.728Z,2.58
2022-08-07T13:34:34.222Z,2.67
2022-08-07T13:37:01.882Z,3.67
2022-08-07T13:40:33.168Z,5.85
2022-08-07T13:42:30.974Z,3.45
2022-08-07T13:45:20.592Z,3.27
2022-08-07T13:48:08.420Z,5.90
2022-08-07T13:51:00.045Z,5.63
2022-08-07T13:53:23.913Z,3.15
2022-08-07T13:55:54.760Z,4.35
2022-08-07T13:58:56.135Z,3.10
2022-08-07T14:01:25.221Z,3.75
2022-08-07T14:04:06.857Z,4.90
2022-08-07T14:06:38.564Z,4.28
2022-08-07T14:09:06.927Z,3.40
2022-08-07T14:11:53.183Z,4.13
2022-08-07T14:14:31.323Z,3.83
2022-08-07T14:17:32.066Z,5.43
2022-08-07T14:20:40.343Z,7.45
2022-08-07T14:22:48.465Z,5.45
2022-08-07T14:25:17.022Z,2.50
2022-08-07T14:28:12.746Z,3.50
2022-08-07T14:30:40.737Z,3.50
2022-08-07T14:33:08.793Z,4.13
2022-08-07T14:35:45.716Z,3.20
2022-08-07T14:38:26.523Z,5.38
2022-08-07T14:41:04.029Z,3.55
2022-08-07T14:43:57.212Z,3.90
2022-08-07T14:46:31.458Z,3.58
2022-08-07T14:49:17.437Z,3.90
2022-08-07T14:52:05.110Z,3.53
2022-08-07T14:54:41.688Z,6.18
2022-08-07T14:57:18.833Z,1.95
2022-08-07T15:02:35.126Z,4.70
2022-08-07T15:05:04.839Z,5.97
2022-08-07T15:07:52.144Z,4.22
2022-08-07T15:13:17.566Z,2.53
2022-08-07T15:18:41.741Z,4.70
2022-08-07T15:21:58.884Z,5.57
2022-08-07T15:25:14.053Z,2.45
2022-08-07T15:27:06.909Z,4.50
2022-08-07T15:30:08.969Z,3.78
2022-08-07T15:32:39.537Z,9.23
2022-08-07T15:38:17.261Z,4.22
2022-08-07T15:43:56.441Z,4.38
2022-08-07T15:46:32.348Z,3.10
2022-08-07T15:49:12.798Z,2.35
2022-08-07T15:54:34.091Z,4.63
2022-08-07T15:57:02.856Z,2.28
2022-08-07T15:59:39.762Z,5.90
2022-08-07T16:02:15.175Z,3.40
2022-08-07T16:04:44.206Z,4.55
2022-08-07T16:08:30.310Z,4.65
2022-08-07T16:10:14.937Z,4.90
2022-08-07T16:12:42.548Z,3.72
2022-08-07T16:15:55.344Z,4.60
2022-08-07T16:22:01.210Z,4.10
2022-08-07T16:24:34.563Z,8.43
2022-08-07T16:27:19.752Z,3.72
2022-08-07T16:30:11.593Z,7.25
2022-08-07T16:32:54.943Z,2.78
2022-08-07T16:35:51.595Z,7.38
2022-08-07T16:39:00.242Z,5.03
2022-08-07T16:41:24.458Z,4.00
2022-08-07T16:44:04.127Z,6.07
2022-08-07T16:47:07.646Z,4.53
2022-08-07T16:50:29.091Z,3.38
2022-08-07T16:52:57.561Z,5.75
2022-08-07T16:55:43.705Z,3.38
2022-08-07T16:58:15.817Z,4.25
2022-08-07T17:00:50.768Z,3.00
2022-08-07T17:03:19.361Z,5.93
2022-08-07T17:06:29.595Z,3.55
2022-08-07T17:09:13.900Z,4.65
2022-08-07T17:12:04.279Z,6.85
2022-08-07T17:14:39.610Z,6.70
2022-08-07T17:17:21.613Z,7.50
2022-08-07T17:20:01.756Z,5.32
2022-08-07T17:22:37.744Z,5.93
2022-08-07T17:25:45.741Z,7.65
2022-08-07T17:28:19.403Z,4.78
2022-08-07T17:31:16.579Z,8.75
2022-08-07T17:34:15.473Z,5.43
2022-08-07T17:36:58.360Z,8.13
2022-08-07T17:39:57.676Z,6.40
2022-08-07T17:42:59.472Z,6.47
2022-08-07T17:45:35.282Z,6.70
2022-08-07T17:48:11.189Z,9.18
2022-08-07T17:50:52.505Z,5.57
2022-08-07T17:54:01.419Z,7.28
2022-08-07T17:56:31.833Z,6.50
2022-08-07T17:59:02.093Z,7.35
2022-08-07T18:01:46.274Z,3.17
2022-08-07T18:04:34.556Z,6.20
2022-08-07T18:07:24.299Z,5.95
2022-08-07T18:10:07.133Z,4.18
2022-08-07T18:12:53.978Z,5.18
2022-08-07T18:15:24.412Z,7.25
2022-08-07T18:18:44.677Z,4.70
2022-08-07T18:21:37.383Z,6.15
2022-08-07T18:23:56.086Z,4.25
2022-08-07T18:26:31.797Z,9.32
2022-08-07T18:29:05.232Z,6.55
2022-08-07T18:32:11.307Z,6.93
2022-08-07T18:35:08.104Z,10.65
2022-08-07T18:38:58.568Z,4.28
2022-08-07T18:40:43.912Z,4.45
2022-08-07T18:43:49.336Z,5.38
2022-08-07T18:46:25.346Z,8.13
2022-08-07T18:50:30.206Z,6.10
2022-08-07T18:52:38.064Z,7.68
2022-08-07T18:55:41.756Z,4.30
2022-08-07T18:58:14.340Z,7.65
2022-08-07T19:00:42.851Z,5.13
2022-08-07T19:03:35.438Z,4.78
2022-08-07T19:06:09.928Z,5.95
2022-08-07T19:08:55.782Z,7.55
2022-08-07T19:11:38.339Z,3.35
2022-08-07T19:14:39.406Z,5.43
2022-08-07T19:17:52.439Z,11.77
2022-08-07T19:20:29.136Z,6.80
2022-08-07T19:23:03.146Z,6.95
2022-08-07T19:26:23.777Z,5.57
2022-08-07T19:30:56.494Z,5.47
2022-08-07T19:31:41.736Z,5.18
2022-08-07T19:34:13.849Z,4.85
2022-08-07T19:37:16.989Z,7.38
2022-08-07T19:39:57.700Z,7.30
2022-08-07T19:42:30.421Z,6.78
2022-08-07T19:45:00.700Z,9.55
2022-08-07T19:47:39.263Z,12.32
2022-08-07T19:50:43.149Z,6.32
2022-08-07T19:52:58.746Z,11.82
2022-08-07T19:55:56.623Z,12.30
2022-08-07T19:58:16.771Z,7.07
2022-08-07T20:00:55.407Z,11.10
2022-08-07T20:03:34.720Z,6.30
2022-08-07T20:06:04.823Z,6.35
2022-08-07T20:08:38.384Z,11.43
2022-08-07T20:11:10.039Z,8.43
2022-08-07T20:13:46.960Z,11.82
2022-08-07T20:16:35.231Z,6.63
2022-08-07T20:19:10.457Z,8.18
2022-08-07T20:21:47.664Z,8.25
2022-08-07T20:24:20.047Z,6.47
2022-08-07T20:26:52.274Z,8.98
2022-08-07T20:29:47.723Z,9.38
2022-08-07T20:32:23.121Z,7.78
2022-08-07T20:34:54.512Z,7.10
2022-08-07T20:37:25.950Z,8.13
2022-08-07T20:40:02.080Z,6.97
2022-08-07T20:42:33.076Z,7.40
2022-08-07T20:45:01.360Z,10.13
2022-08-07T20:47:56.014Z,9.00
2022-08-07T20:50:21.016Z,8.13
2022-08-07T20:52:51.811Z,7.72
2022-08-07T20:55:23.766Z,6.00
2022-08-07T20:58:02.466Z,8.00
2022-08-07T21:00:42.927Z,9.20
2022-08-07T21:03:14.760Z,8.57
2022-08-07T21:05:54.679Z,6.80
2022-08-07T21:08:36.615Z,8.80
2022-08-07T21:11:07.402Z,11.05
2022-08-07T21:13:43.774Z,5.07
2022-08-07T21:16:27.326Z,5.97
2022-08-07T21:18:58.264Z,8.90
2022-08-07T21:21:27.278Z,7.20
2022-08-07T21:24:28.337Z,7.43
2022-08-07T21:27:07.175Z,12.23
2022-08-07T21:29:52.785Z,10.57
2022-08-07T21:32:50.119Z,12.77
2022-08-07T21:36:05.553Z,8.30
2022-08-07T21:39:02.590Z,10.07
2022-08-07T21:42:00.506Z,12.30
2022-08-07T21:44:37.696Z,9.30
2022-08-07T21:47:28.642Z,7.95
2022-08-07T21:50:14.721Z,6.45
2022-08-07T21:53:08.428Z,6.65
2022-08-07T21:55:54.972Z,6.95
2022-08-07T21:58:45.876Z,7.97
2022-08-07T22:01:20.516Z,10.55
2022-08-07T22:04:17.730Z,9.30
2022-08-07T22:06:53.722Z,6.18
2022-08-07T22:09:25.820Z,8.27
2022-08-07T22:12:07.035Z,9.73
2022-08-07T22:15:00.094Z,12.48
2022-08-07T22:17:36.151Z,7.95
2022-08-07T22:20:10.719Z,8.75
2022-08-07T22:22:53.428Z,7.15
2022-08-07T22:25:51.153Z,8.57
2022-08-07T22:28:48.277Z,9.98
2022-08-07T22:31:20.076Z,7.50
2022-08-07T22:34:13.077Z,6.82
2022-08-07T22:36:56.801Z,10.05
2022-08-07T22:39:52.511Z,7.45
2022-08-07T22:42:25.839Z,6.93
2022-08-07T22:44:58.252Z,6.25
2022-08-07T22:47:45.604Z,7.07
2022-08-07T22:50:29.061Z,6.40
2022-08-07T22:53:19.789Z,10.02
2022-08-07T22:56:08.560Z,9.75
2022-08-07T22:58:54.867Z,9.95
2022-08-07T23:01:22.146Z,9.90
2022-08-07T23:04:00.208Z,9.77
2022-08-07T23:06:40.393Z,9.40
2022-08-07T23:10:04.524Z,11.52
2022-08-07T23:12:32.844Z,8.23
2022-08-07T23:15:03.547Z,9.07
2022-08-07T23:17:41.781Z,9.40
2022-08-07T23:20:51.437Z,8.88
2022-08-07T23:24:05.484Z,9.50
2022-08-07T23:26:56.277Z,7.20
2022-08-07T23:29:43.355Z,9.70
2022-08-07T23:34:20.231Z,9.77
2022-08-07T23:35:23.974Z,15.30
2022-08-07T23:38:06.140Z,8.88
2022-08-07T23:40:35.963Z,9.80
2022-08-07T23:43:16.788Z,12.45
2022-08-07T23:46:03.286Z,8.68
2022-08-07T23:48:49.638Z,8.85
2022-08-07T23:53:17.040Z,8.95
2022-08-07T23:54:11.583Z,9.48
2022-08-07T23:56:53.908Z,9.10
